createdAt,value
2022-10-15T00:01:09.837Z,14.70
2022-10-15T00:03:38.982Z,14.70
2022-10-15T00:06:08.016Z,14.70
2022-10-15T00:08:39.567Z,14.70
2022-10-15T00:11:10.899Z,14.70
2022-10-15T00:13:39.818Z,14.70
2022-10-15T00:16:09.132Z,14.70
2022-10-15T00:18:37.479Z,14.70
2022-10-15T00:21:07.146Z,14.70
2022-10-15T00:23:35.557Z,14.70
2022-10-15T00:26:05.138Z,14.70
2022-10-15T00:28:35.005Z,14.70
2022-10-15T00:33:37.618Z,14.70
2022-10-15T00:36:07.018Z,14.70
2022-10-15T00:38:35.705Z,14.70
2022-10-15T00:41:04.056Z,14.70
2022-10-15T00:43:44.106Z,14.80
2022-10-15T00:46:23.497Z,14.70
2022-10-15T00:48:52.852Z,14.80
2022-10-15T00:51:22.182Z,14.80
2022-10-15T00:53:50.932Z,14.80
2022-10-15T00:56:21.241Z,14.80
2022-10-15T00:58:51.175Z,14.80
2022-10-15T01:01:19.685Z,14.80
2022-10-15T01:03:47.995Z,14.80
2022-10-15T01:06:16.315Z,14.80
2022-10-15T01:08:44.544Z,14.80
2022-10-15T01:11:19.406Z,14.80
2022-10-15T01:13:50.904Z,14.80
2022-10-15T01:16:23.510Z,14.80
2022-10-15T01:18:55.684Z,14.80
2022-10-15T01:21:27.000Z,14.80
2022-10-15T01:24:18.928Z,14.80
2022-10-15T01:27:11.199Z,14.80
2022-10-15T01:29:53.849Z,14.80
2022-10-15T01:32:27.169Z,14.80
2022-10-15T01:34:58.398Z,14.80
2022-10-15T01:37:30.331Z,14.80
2022-10-15T01:40:00.698Z,14.70
2022-10-15T01:42:30.337Z,14.70
2022-10-15T01:45:00.166Z,14.70
2022-10-15T01:47:33.495Z,14.70
2022-10-15T01:50:02.906Z,14.80
2022-10-15T01:52:32.613Z,14.70
2022-10-15T01:55:02.117Z,14.80
2022-10-15T01:57:31.832Z,14.70
2022-10-15T02:00:00.549Z,14.70
2022-10-15T02:02:30.282Z,14.70
2022-10-15T02:04:58.498Z,14.70
2022-10-15T02:07:30.794Z,14.70
2022-10-15T02:10:02.110Z,14.70
2022-10-15T02:12:34.831Z,14.70
2022-10-15T02:15:08.149Z,14.70
2022-10-15T02:17:40.360Z,14.70
2022-10-15T02:20:12.971Z,14.70
2022-10-15T02:22:45.555Z,14.70
2022-10-15T02:25:16.858Z,14.70
2022-10-15T02:27:46.230Z,14.80
2022-10-15T02:30:14.758Z,14.80
2022-10-15T02:32:47.119Z,14.70
2022-10-15T02:35:15.720Z,14.70
2022-10-15T02:37:45.439Z,14.70
2022-10-15T02:40:13.919Z,14.80
2022-10-15T02:42:42.180Z,14.90
2022-10-15T02:45:11.429Z,14.80
2022-10-15T02:47:39.770Z,14.80
2022-10-15T02:50:09.852Z,14.80
2022-10-15T02:52:38.559Z,14.80
2022-10-15T02:55:07.270Z,14.80
2022-10-15T02:57:35.643Z,14.80
2022-10-15T03:00:04.040Z,14.80
2022-10-15T03:02:32.399Z,14.80
2022-10-15T03:05:01.150Z,14.80
2022-10-15T03:07:31.180Z,14.80
2022-10-15T03:09:59.659Z,14.80
2022-10-15T03:12:27.979Z,14.80
2022-10-15T03:14:56.291Z,14.80
2022-10-15T03:17:24.835Z,14.70
2022-10-15T03:19:53.510Z,14.80
2022-10-15T03:22:21.841Z,14.90
2022-10-15T03:24:51.679Z,14.80
2022-10-15T03:27:20.072Z,14.90
2022-10-15T03:29:49.022Z,14.80
2022-10-15T03:32:17.427Z,14.90
2022-10-15T03:34:45.700Z,14.90
2022-10-15T03:37:14.112Z,14.90
2022-10-15T03:39:42.929Z,14.90
2022-10-15T03:42:12.626Z,14.90
2022-10-15T03:44:40.923Z,14.80
2022-10-15T03:47:09.499Z,14.90
2022-10-15T03:49:37.990Z,14.80
2022-10-15T03:52:06.303Z,14.80
2022-10-15T03:54:34.687Z,14.80
2022-10-15T03:57:02.899Z,14.90
2022-10-15T03:59:33.021Z,14.90
2022-10-15T04:02:01.331Z,14.90
2022-10-15T04:04:29.819Z,14.90
2022-10-15T04:06:58.079Z,14.90
2022-10-15T04:09:26.530Z,14.90
2022-10-15T04:11:54.790Z,14.90
2022-10-15T04:14:23.070Z,14.90
2022-10-15T04:16:52.779Z,14.90
2022-10-15T04:19:21.128Z,14.90
2022-10-15T04:21:49.670Z,14.90
2022-10-15T04:24:18.429Z,14.80
2022-10-15T04:26:46.753Z,14.80
2022-10-15T04:29:15.039Z,14.80
2022-10-15T04:31:43.369Z,14.80
2022-10-15T04:34:13.091Z,14.70
2022-10-15T04:36:41.341Z,14.80
2022-10-15T04:39:12.313Z,14.70
2022-10-15T04:41:43.300Z,14.60
2022-10-15T04:44:11.709Z,14.60
2022-10-15T04:46:40.139Z,14.60
2022-10-15T04:49:08.602Z,14.60
2022-10-15T04:51:38.989Z,14.60
2022-10-15T04:54:07.359Z,14.60
2022-10-15T04:56:35.570Z,14.60
2022-10-15T04:59:07.650Z,14.60
2022-10-15T05:01:35.912Z,14.60
2022-10-15T05:04:04.251Z,14.60
2022-10-15T05:06:33.730Z,14.70
2022-10-15T05:09:03.550Z,14.70
2022-10-15T05:11:31.890Z,14.70
2022-10-15T05:14:00.479Z,14.70
2022-10-15T05:16:29.760Z,14.70
2022-10-15T05:18:59.175Z,14.60
2022-10-15T05:21:27.549Z,14.70
2022-10-15T05:23:55.885Z,14.80
2022-10-15T05:26:26.170Z,14.80
2022-10-15T05:28:54.688Z,14.70
2022-10-15T05:31:24.046Z,14.70
2022-10-15T05:33:53.217Z,14.80
2022-10-15T05:36:23.160Z,14.80
2022-10-15T05:38:53.890Z,14.80
2022-10-15T05:41:22.748Z,14.80
2022-10-15T05:43:53.352Z,14.80
2022-10-15T05:46:22.020Z,14.80
2022-10-15T05:48:51.219Z,14.80
2022-10-15T05:51:19.829Z,14.80
2022-10-15T05:53:48.625Z,14.80
2022-10-15T05:56:17.364Z,14.80
2022-10-15T05:58:46.023Z,14.80
2022-10-15T06:01:15.755Z,14.80
2022-10-15T06:03:44.397Z,14.80
2022-10-15T06:06:16.375Z,14.80
2022-10-15T06:08:44.735Z,14.80
2022-10-15T06:11:13.025Z,14.90
2022-10-15T06:13:42.305Z,14.90
2022-10-15T06:16:11.016Z,14.90
2022-10-15T06:18:40.865Z,14.90
2022-10-15T06:21:09.694Z,15.00
2022-10-15T06:23:37.946Z,15.00
2022-10-15T06:26:08.496Z,15.00
2022-10-15T06:28:37.175Z,15.00
2022-10-15T06:31:06.086Z,15.10
2022-10-15T06:33:34.759Z,15.10
2022-10-15T06:36:06.936Z,15.10
2022-10-15T06:38:35.366Z,15.10
2022-10-15T06:41:05.597Z,15.10
2022-10-15T06:43:35.216Z,15.20
2022-10-15T06:46:04.498Z,15.20
2022-10-15T06:48:33.365Z,15.20
2022-10-15T06:51:01.957Z,15.30
2022-10-15T06:53:32.270Z,15.40
2022-10-15T06:56:01.066Z,15.40
2022-10-15T06:58:29.755Z,15.50
2022-10-15T07:01:01.477Z,15.50
2022-10-15T07:03:30.114Z,15.60
2022-10-15T07:05:58.437Z,15.60
2022-10-15T07:08:26.966Z,15.60
2022-10-15T07:10:56.698Z,15.60
2022-10-15T07:13:25.315Z,15.50
2022-10-15T07:15:56.166Z,15.50
2022-10-15T07:18:24.887Z,15.50
2022-10-15T07:20:53.127Z,15.50
2022-10-15T07:23:24.215Z,15.50
2022-10-15T07:25:58.307Z,15.50
2022-10-15T07:28:26.914Z,15.60
2022-10-15T07:30:55.185Z,15.60
2022-10-15T07:33:23.428Z,15.60
2022-10-15T07:35:51.770Z,15.60
2022-10-15T07:38:20.603Z,15.60
2022-10-15T07:40:48.826Z,15.70
2022-10-15T07:43:18.678Z,15.70
2022-10-15T07:45:49.296Z,15.70
2022-10-15T07:48:17.525Z,15.90
2022-10-15T07:50:46.015Z,15.80
2022-10-15T07:53:16.144Z,15.90
2022-10-15T07:55:46.478Z,15.90
2022-10-15T07:58:15.177Z,16.00
2022-10-15T08:00:45.276Z,16.00
2022-10-15T08:03:13.707Z,16.00
2022-10-15T08:05:42.465Z,16.00
2022-10-15T08:08:10.768Z,16.10
2022-10-15T08:10:39.617Z,16.10
2022-10-15T08:13:08.226Z,16.10
2022-10-15T08:15:36.496Z,16.10
2022-10-15T08:18:06.486Z,16.10
2022-10-15T08:20:34.813Z,16.20
2022-10-15T08:23:03.037Z,16.10
2022-10-15T08:25:34.406Z,16.10
2022-10-15T08:28:02.667Z,16.10
2022-10-15T08:30:30.997Z,16.00
2022-10-15T08:32:59.375Z,16.10
2022-10-15T08:35:29.176Z,16.10
2022-10-15T08:37:57.506Z,16.20
2022-10-15T08:40:25.815Z,16.30
2022-10-15T08:42:54.085Z,16.50
2022-10-15T08:45:25.854Z,16.60
2022-10-15T08:47:57.035Z,16.70
2022-10-15T08:50:28.067Z,16.80
2022-10-15T08:52:59.764Z,16.90
2022-10-15T08:55:31.189Z,17.00
2022-10-15T08:58:01.115Z,17.10
2022-10-15T09:00:32.367Z,17.10
2022-10-15T09:03:03.125Z,17.10
2022-10-15T09:05:36.086Z,17.10
2022-10-15T09:08:10.045Z,17.20
2022-10-15T09:10:42.025Z,17.30
2022-10-15T09:13:16.239Z,17.30
2022-10-15T09:15:49.227Z,17.40
2022-10-15T09:18:20.436Z,17.40
2022-10-15T09:20:48.946Z,17.40
2022-10-15T09:23:20.405Z,17.30
2022-10-15T09:25:51.417Z,17.40
2022-10-15T09:28:24.595Z,17.40
2022-10-15T09:30:54.458Z,17.50
2022-10-15T09:33:29.393Z,17.60
2022-10-15T09:36:01.802Z,17.60
2022-10-15T09:38:36.933Z,17.70
2022-10-15T09:41:16.831Z,17.70
2022-10-15T09:43:47.475Z,17.80
2022-10-15T09:46:17.258Z,17.80
2022-10-15T09:48:48.268Z,17.90
2022-10-15T09:51:22.446Z,17.80
2022-10-15T09:54:27.351Z,17.90
2022-10-15T09:56:58.444Z,17.90
2022-10-15T09:59:28.325Z,17.90
2022-10-15T10:02:01.367Z,18.00
2022-10-15T10:04:30.845Z,18.00
2022-10-15T10:07:00.656Z,18.00
2022-10-15T10:09:32.056Z,18.00
2022-10-15T10:12:02.968Z,18.00
2022-10-15T10:14:33.397Z,18.00
2022-10-15T10:17:19.929Z,18.00
2022-10-15T10:20:05.023Z,18.00
2022-10-15T10:22:43.618Z,18.00
2022-10-15T10:25:34.055Z,18.10
2022-10-15T10:28:14.551Z,18.20
2022-10-15T10:30:48.443Z,18.30
2022-10-15T10:33:20.937Z,18.50
2022-10-15T10:35:51.447Z,18.70
2022-10-15T10:38:21.409Z,18.70
2022-10-15T10:40:52.163Z,18.60
2022-10-15T10:43:24.837Z,18.60
2022-10-15T10:45:57.646Z,18.60
2022-10-15T10:48:27.156Z,18.40
2022-10-15T10:51:09.078Z,18.40
2022-10-15T10:53:42.288Z,18.50
2022-10-15T10:56:13.821Z,18.50
2022-10-15T10:58:43.838Z,18.40
2022-10-15T11:01:13.868Z,18.40
2022-10-15T11:03:43.696Z,18.30
2022-10-15T11:06:20.627Z,18.30
2022-10-15T11:08:56.967Z,18.40
2022-10-15T11:11:29.237Z,18.50
2022-10-15T11:14:04.158Z,18.60
2022-10-15T11:16:36.235Z,18.80
2022-10-15T11:19:19.815Z,18.90
2022-10-15T11:22:04.056Z,19.00
2022-10-15T11:24:48.257Z,19.10
2022-10-15T11:27:23.264Z,19.10
2022-10-15T11:29:55.753Z,18.90
2022-10-15T11:32:42.065Z,18.80
2022-10-15T11:35:41.318Z,18.80
2022-10-15T11:38:19.136Z,18.70
2022-10-15T11:40:52.708Z,18.80
2022-10-15T11:43:28.318Z,18.70
2022-10-15T11:46:01.687Z,18.70
2022-10-15T11:48:39.497Z,18.70
2022-10-15T11:51:11.782Z,18.60
2022-10-15T11:53:54.678Z,18.60
2022-10-15T11:56:24.387Z,18.60
2022-10-15T11:58:53.761Z,18.60
2022-10-15T12:01:25.558Z,18.70
2022-10-15T12:03:55.369Z,18.70
2022-10-15T12:06:26.307Z,18.70
2022-10-15T12:08:55.306Z,18.70
2022-10-15T12:11:28.727Z,18.80
2022-10-15T12:14:01.026Z,18.80
2022-10-15T12:16:35.201Z,18.80
2022-10-15T12:19:08.976Z,18.90
2022-10-15T12:21:38.907Z,18.90
2022-10-15T12:24:28.306Z,18.90
2022-10-15T12:26:58.409Z,19.00
2022-10-15T12:29:28.866Z,19.10
2022-10-15T12:31:57.677Z,19.30
2022-10-15T12:34:31.377Z,19.40
2022-10-15T12:37:04.545Z,19.50
2022-10-15T12:39:51.241Z,19.40
2022-10-15T12:42:27.228Z,19.40
2022-10-15T12:44:56.457Z,19.40
2022-10-15T12:47:43.796Z,19.40
2022-10-15T12:50:18.788Z,19.40
2022-10-15T12:52:57.828Z,19.50
2022-10-15T12:55:28.617Z,19.70
2022-10-15T12:57:59.568Z,19.90
2022-10-15T13:00:32.708Z,19.90
2022-10-15T13:03:10.460Z,19.80
2022-10-15T13:05:39.038Z,19.70
2022-10-15T13:08:13.756Z,19.70
2022-10-15T13:10:46.656Z,19.70
2022-10-15T13:13:17.957Z,19.70
2022-10-15T13:15:54.570Z,19.60
2022-10-15T13:18:26.077Z,19.50
2022-10-15T13:20:56.594Z,19.60
2022-10-15T13:23:31.621Z,19.70
2022-10-15T13:26:13.394Z,19.80
2022-10-15T13:28:43.652Z,19.80
2022-10-15T13:31:16.547Z,19.80
2022-10-15T13:33:45.648Z,19.70
2022-10-15T13:36:20.520Z,19.70
2022-10-15T13:38:53.797Z,19.70
2022-10-15T13:41:25.149Z,19.60
2022-10-15T13:43:58.879Z,19.50
2022-10-15T13:46:27.894Z,19.50
2022-10-15T13:49:00.391Z,19.50
2022-10-15T13:51:40.197Z,19.60
2022-10-15T13:54:10.787Z,19.60
2022-10-15T13:56:47.763Z,19.60
2022-10-15T13:59:20.347Z,19.60
2022-10-15T14:01:49.547Z,19.60
2022-10-15T14:04:18.716Z,19.60
2022-10-15T14:06:56.799Z,19.60
2022-10-15T14:09:28.646Z,19.60
2022-10-15T14:12:00.645Z,19.60
2022-10-15T14:14:34.407Z,19.60
2022-10-15T14:17:04.408Z,19.60
2022-10-15T14:19:33.469Z,19.60
2022-10-15T14:22:02.426Z,19.60
2022-10-15T14:24:33.608Z,19.60
2022-10-15T14:27:08.849Z,19.60
2022-10-15T14:29:40.067Z,19.50
2022-10-15T14:32:21.228Z,19.40
2022-10-15T14:34:50.216Z,19.40
2022-10-15T14:37:36.309Z,19.40
2022-10-15T14:40:05.936Z,19.40
2022-10-15T14:42:34.546Z,19.40
2022-10-15T14:45:13.955Z,19.40
2022-10-15T14:47:42.737Z,19.30
2022-10-15T14:50:11.757Z,19.30
2022-10-15T14:52:45.224Z,19.30
2022-10-15T14:55:17.437Z,19.20
2022-10-15T14:57:48.646Z,19.20
2022-10-15T15:00:24.145Z,19.10
2022-10-15T15:02:52.930Z,19.10
2022-10-15T15:05:23.105Z,19.10
2022-10-15T15:07:51.680Z,19.10
2022-10-15T15:10:20.648Z,19.10
2022-10-15T15:12:51.105Z,19.10
2022-10-15T15:15:21.997Z,19.10
2022-10-15T15:17:50.421Z,19.10
2022-10-15T15:20:20.587Z,19.10
2022-10-15T15:22:50.646Z,19.00
2022-10-15T15:25:20.078Z,19.00
2022-10-15T15:27:48.327Z,19.00
2022-10-15T15:30:17.837Z,19.00
2022-10-15T15:32:48.163Z,18.90
2022-10-15T15:35:24.699Z,18.80
2022-10-15T15:37:53.050Z,18.80
2022-10-15T15:40:21.811Z,18.80
2022-10-15T15:42:50.918Z,18.80
2022-10-15T15:45:20.658Z,18.80
2022-10-15T15:47:50.557Z,18.80
2022-10-15T15:50:19.189Z,18.70
2022-10-15T15:52:47.638Z,18.70
2022-10-15T15:55:15.977Z,18.70
2022-10-15T15:57:45.446Z,18.70
2022-10-15T16:00:14.357Z,18.70
2022-10-15T16:02:43.057Z,18.70
2022-10-15T16:05:14.537Z,18.70
2022-10-15T16:07:42.867Z,18.60
2022-10-15T16:10:12.296Z,18.60
2022-10-15T16:12:40.729Z,18.60
2022-10-15T16:15:13.389Z,18.60
2022-10-15T16:17:43.338Z,18.50
2022-10-15T16:20:13.896Z,18.40
2022-10-15T16:22:42.863Z,18.30
2022-10-15T16:25:11.806Z,18.20
2022-10-15T16:27:40.236Z,18.10
2022-10-15T16:30:08.926Z,18.10
2022-10-15T16:32:37.367Z,18.10
2022-10-15T16:35:05.937Z,18.00
2022-10-15T16:37:35.596Z,18.00
2022-10-15T16:40:04.067Z,18.00
2022-10-15T16:42:32.255Z,18.00
2022-10-15T16:45:00.475Z,18.00
2022-10-15T16:47:28.836Z,18.00
2022-10-15T16:49:57.127Z,18.00
2022-10-15T16:52:25.643Z,18.00
2022-10-15T16:54:55.696Z,18.00
2022-10-15T16:57:24.249Z,18.00
2022-10-15T16:59:52.546Z,18.00
2022-10-15T17:02:21.286Z,18.00
2022-10-15T17:04:49.617Z,18.10
2022-10-15T17:07:18.058Z,18.10
2022-10-15T17:12:23.076Z,18.20
2022-10-15T17:14:52.417Z,18.10
2022-10-15T17:17:20.885Z,18.10
2022-10-15T17:19:49.163Z,18.10
2022-10-15T17:22:17.531Z,18.10
2022-10-15T17:24:45.873Z,18.10
2022-10-15T17:27:14.646Z,18.10
2022-10-15T17:29:44.904Z,18.10
2022-10-15T17:32:13.204Z,18.10
2022-10-15T17:34:41.526Z,18.00
2022-10-15T17:37:10.121Z,18.00
2022-10-15T17:39:38.603Z,18.00
2022-10-15T17:42:07.245Z,18.00
2022-10-15T17:44:36.070Z,18.00
2022-10-15T17:47:06.186Z,18.00
2022-10-15T17:49:34.874Z,18.00
2022-10-15T17:52:03.174Z,18.00
2022-10-15T17:54:31.663Z,18.00
2022-10-15T17:56:59.924Z,17.90
2022-10-15T17:59:28.504Z,17.90
2022-10-15T18:01:59.776Z,17.90
2022-10-15T18:04:30.807Z,17.90
2022-10-15T18:06:59.168Z,17.90
2022-10-15T18:09:27.634Z,17.80
2022-10-15T18:11:56.067Z,17.80
2022-10-15T18:14:24.506Z,17.70
2022-10-15T18:16:52.874Z,17.70
2022-10-15T18:19:21.213Z,17.60
2022-10-15T18:21:51.162Z,17.60
2022-10-15T18:24:22.224Z,17.50
2022-10-15T18:26:50.881Z,17.40
2022-10-15T18:29:19.274Z,17.40
2022-10-15T18:31:50.286Z,17.30
2022-10-15T18:34:22.106Z,17.30
2022-10-15T18:36:52.204Z,17.20
2022-10-15T18:39:20.568Z,17.20
2022-10-15T18:41:48.949Z,17.10
2022-10-15T18:44:20.988Z,17.10
2022-10-15T18:46:49.260Z,17.10
2022-10-15T18:49:18.405Z,17.10
2022-10-15T18:51:46.879Z,17.10
2022-10-15T18:54:16.580Z,17.10
2022-10-15T18:56:45.246Z,17.10
2022-10-15T18:59:14.004Z,17.10
2022-10-15T19:01:44.234Z,17.10
2022-10-15T19:04:13.418Z,17.10
2022-10-15T19:06:43.328Z,17.10
2022-10-15T19:09:12.622Z,17.10
2022-10-15T19:11:43.612Z,17.10
2022-10-15T19:14:12.543Z,17.10
2022-10-15T19:16:40.825Z,17.10
2022-10-15T19:19:09.126Z,17.10
2022-10-15T19:21:38.056Z,17.00
2022-10-15T19:24:06.702Z,17.00
2022-10-15T19:26:35.154Z,17.00
2022-10-15T19:29:05.504Z,17.00
2022-10-15T19:31:34.821Z,17.00
2022-10-15T19:34:03.553Z,17.00
2022-10-15T19:36:33.308Z,17.00
2022-10-15T19:39:02.535Z,17.00
2022-10-15T19:41:30.986Z,16.90
2022-10-15T19:43:59.344Z,16.90
2022-10-15T19:46:29.482Z,16.90
2022-10-15T19:48:57.913Z,16.90
2022-10-15T19:51:26.272Z,16.90
2022-10-15T19:53:56.552Z,16.90
2022-10-15T19:56:25.773Z,16.90
2022-10-15T19:58:56.224Z,16.90
2022-10-15T20:01:24.624Z,16.90
2022-10-15T20:03:59.151Z,16.90
2022-10-15T20:06:32.419Z,16.90
2022-10-15T20:09:02.857Z,16.90
2022-10-15T20:11:31.694Z,16.90
2022-10-15T20:14:00.597Z,16.90
2022-10-15T20:16:33.183Z,16.90
2022-10-15T20:19:06.877Z,16.90
2022-10-15T20:21:35.319Z,16.90
2022-10-15T20:24:04.960Z,16.90
2022-10-15T20:26:34.168Z,16.90
2022-10-15T20:29:02.623Z,16.90
2022-10-15T20:31:33.192Z,16.90
2022-10-15T20:34:04.012Z,16.90
2022-10-15T20:36:32.326Z,16.80
2022-10-15T20:39:01.329Z,16.80
2022-10-15T20:41:29.775Z,16.80
2022-10-15T20:43:58.434Z,16.80
2022-10-15T20:46:29.035Z,16.80
2022-10-15T20:48:58.497Z,16.80
2022-10-15T20:51:28.851Z,16.80
2022-10-15T20:53:58.925Z,16.70
2022-10-15T20:56:27.484Z,16.70
2022-10-15T20:58:57.986Z,16.70
2022-10-15T21:01:26.373Z,16.70
2022-10-15T21:03:54.773Z,16.60
2022-10-15T21:06:23.224Z,16.60
2022-10-15T21:08:53.190Z,16.60
2022-10-15T21:11:21.546Z,16.50
2022-10-15T21:13:50.034Z,16.50
2022-10-15T21:16:18.720Z,16.50
2022-10-15T21:18:47.231Z,16.50
2022-10-15T21:21:15.965Z,16.40
2022-10-15T21:23:44.635Z,16.40
2022-10-15T21:26:15.617Z,16.40
2022-10-15T21:28:44.916Z,16.40
2022-10-15T21:31:14.027Z,16.40
2022-10-15T21:33:42.723Z,16.40
2022-10-15T21:36:12.573Z,16.30
2022-10-15T21:38:41.023Z,16.30
2022-10-15T21:41:09.734Z,16.30
2022-10-15T21:43:39.975Z,16.30
2022-10-15T21:46:09.182Z,16.20
2022-10-15T21:48:38.363Z,16.20
2022-10-15T21:51:07.204Z,16.20
2022-10-15T21:53:37.623Z,16.20
2022-10-15T21:56:08.283Z,16.10
2022-10-15T21:58:38.017Z,16.10
2022-10-15T22:01:14.511Z,16.10
2022-10-15T22:03:45.737Z,16.10
2022-10-15T22:06:14.342Z,16.10
2022-10-15T22:08:43.244Z,16.10
2022-10-15T22:11:12.494Z,16.10
2022-10-15T22:13:41.703Z,16.00
2022-10-15T22:16:11.853Z,15.80
2022-10-15T22:18:40.721Z,15.90
2022-10-15T22:21:10.602Z,15.90
2022-10-15T22:23:38.937Z,15.90
2022-10-15T22:26:07.522Z,15.90
2022-10-15T22:28:36.132Z,16.00
2022-10-15T22:31:05.684Z,16.00
2022-10-15T22:33:35.932Z,16.00
2022-10-15T22:36:04.644Z,16.10
2022-10-15T22:38:33.144Z,16.10
2022-10-15T22:41:02.123Z,16.10
2022-10-15T22:43:30.488Z,16.10
2022-10-15T22:46:00.722Z,16.10
2022-10-15T22:48:29.092Z,16.10
2022-10-15T22:50:58.901Z,16.10
2022-10-15T22:53:27.213Z,16.10
2022-10-15T22:55:58.542Z,16.10
2022-10-15T22:58:28.022Z,16.10
2022-10-15T23:00:56.381Z,16.00
2022-10-15T23:03:24.803Z,16.00
2022-10-15T23:05:53.744Z,16.00
2022-10-15T23:08:24.363Z,16.10
2022-10-15T23:10:52.614Z,16.20
2022-10-15T23:13:20.925Z,16.30
2022-10-15T23:15:49.196Z,16.30
2022-10-15T23:18:18.226Z,16.40
2022-10-15T23:20:46.474Z,16.40
2022-10-15T23:23:14.805Z,16.50
2022-10-15T23:25:44.494Z,16.50
2022-10-15T23:28:12.774Z,16.50
2022-10-15T23:30:41.054Z,16.50
2022-10-15T23:33:09.315Z,16.50
2022-10-15T23:35:37.561Z,16.50
2022-10-15T23:38:05.834Z,16.50
2022-10-15T23:40:34.135Z,16.40
2022-10-15T23:43:03.964Z,16.40
2022-10-15T23:45:32.666Z,16.40
2022-10-15T23:48:00.936Z,16.30
2022-10-15T23:50:34.944Z,16.30
2022-10-15T23:53:03.284Z,16.30
2022-10-15T23:55:31.874Z,16.30
2022-10-15T23:58:00.174Z,16.30
